createdAt,value
2018-07-25T00:01:55.140Z,25.47
2018-07-25T00:04:22.623Z,25.47
2018-07-25T00:06:50.118Z,25.46
2018-07-25T00:09:17.516Z,25.54
2018-07-25T00:11:45.048Z,25.56
2018-07-25T00:14:12.545Z,25.54
2018-07-25T00:16:40.374Z,25.51
2018-07-25T00:19:07.806Z,25.52
2018-07-25T00:21:35.338Z,25.43
2018-07-25T00:24:02.805Z,25.42
2018-07-25T00:26:30.283Z,25.42
2018-07-25T00:28:57.686Z,25.47
2018-07-25T00:31:25.151Z,25.49
2018-07-25T00:33:52.604Z,25.49
2018-07-25T00:36:20.173Z,25.48
2018-07-25T00:38:47.551Z,25.39
2018-07-25T00:41:15.006Z,25.38
2018-07-25T00:43:42.459Z,25.34
2018-07-25T00:46:09.892Z,25.27
2018-07-25T00:48:37.431Z,25.17
2018-07-25T00:51:04.873Z,25.18
2018-07-25T00:53:32.356Z,25.21
2018-07-25T00:55:59.862Z,25.18
2018-07-25T00:58:27.302Z,25.08
2018-07-25T01:00:54.714Z,25.04
2018-07-25T01:03:22.197Z,25.07
2018-07-25T01:05:49.655Z,25.02
2018-07-25T01:08:17.139Z,24.98
2018-07-25T01:10:44.677Z,24.96
2018-07-25T01:13:12.180Z,24.98
2018-07-25T01:15:39.668Z,24.96
2018-07-25T01:18:07.241Z,24.97
2018-07-25T01:20:34.920Z,25.00
2018-07-25T01:23:02.446Z,24.92
2018-07-25T01:25:30.027Z,24.92
2018-07-25T01:27:57.575Z,24.91
2018-07-25T01:30:24.977Z,24.88
2018-07-25T01:32:52.418Z,24.87
2018-07-25T01:35:20.826Z,24.76
2018-07-25T01:37:48.305Z,24.71
2018-07-25T01:40:15.787Z,24.59
2018-07-25T01:42:43.267Z,24.67
2018-07-25T01:45:10.731Z,24.69
2018-07-25T01:47:38.161Z,24.65
2018-07-25T01:50:05.580Z,24.62
2018-07-25T01:52:33.005Z,24.50
2018-07-25T01:55:00.464Z,24.44
2018-07-25T01:57:27.908Z,24.42
2018-07-25T01:59:55.327Z,24.47
2018-07-25T02:02:22.767Z,24.47
2018-07-25T02:04:50.170Z,24.37
2018-07-25T02:07:17.642Z,24.32
2018-07-25T02:09:45.482Z,24.34
2018-07-25T02:12:12.938Z,24.35
2018-07-25T02:14:40.397Z,24.39
2018-07-25T02:17:08.039Z,24.39
2018-07-25T02:19:35.588Z,24.37
2018-07-25T02:22:02.994Z,24.32
2018-07-25T02:24:30.438Z,24.29
2018-07-25T02:26:57.907Z,24.26
2018-07-25T02:29:25.428Z,24.20
2018-07-25T02:31:52.896Z,24.12
2018-07-25T02:34:20.480Z,24.09
2018-07-25T02:36:47.926Z,24.04
2018-07-25T02:39:15.366Z,23.87
2018-07-25T02:41:42.812Z,23.84
2018-07-25T02:44:10.285Z,23.74
2018-07-25T02:46:37.727Z,23.68
2018-07-25T02:49:05.202Z,23.69
2018-07-25T02:51:32.652Z,23.61
2018-07-25T02:54:00.177Z,23.47
2018-07-25T02:56:28.580Z,23.29
2018-07-25T02:58:56.036Z,23.28
2018-07-25T03:01:23.840Z,23.26
2018-07-25T03:03:51.455Z,23.25
2018-07-25T03:06:18.915Z,23.18
2018-07-25T03:08:46.334Z,23.18
2018-07-25T03:11:13.794Z,23.10
2018-07-25T03:13:41.239Z,23.14
2018-07-25T03:16:08.697Z,23.20
2018-07-25T03:18:36.219Z,23.18
2018-07-25T03:21:03.770Z,23.16
2018-07-25T03:23:31.219Z,23.17
2018-07-25T03:25:58.663Z,23.18
2018-07-25T03:28:26.087Z,23.17
2018-07-25T03:30:53.532Z,23.21
2018-07-25T03:33:21.005Z,23.24
2018-07-25T03:35:48.418Z,23.28
2018-07-25T03:38:15.843Z,23.29
2018-07-25T03:40:43.286Z,23.31
2018-07-25T03:43:10.952Z,23.31
2018-07-25T03:45:38.383Z,23.21
2018-07-25T03:48:06.018Z,23.20
2018-07-25T03:50:33.469Z,23.20
2018-07-25T03:53:00.979Z,23.15
2018-07-25T03:55:28.459Z,23.09
2018-07-25T03:57:55.882Z,23.00
2018-07-25T04:00:23.418Z,22.92
2018-07-25T04:02:50.938Z,22.86
2018-07-25T04:05:18.382Z,22.73
2018-07-25T04:07:45.823Z,22.69
2018-07-25T04:10:13.279Z,22.71
2018-07-25T04:12:40.792Z,22.74
2018-07-25T04:15:08.931Z,22.76
2018-07-25T04:17:36.405Z,22.84
2018-07-25T04:20:03.894Z,22.83
2018-07-25T04:22:31.361Z,22.78
2018-07-25T04:24:58.904Z,22.76
2018-07-25T04:27:26.352Z,22.71
2018-07-25T04:29:53.785Z,22.76
2018-07-25T04:32:21.278Z,22.85
2018-07-25T04:34:48.777Z,22.86
2018-07-25T04:37:16.229Z,22.89
2018-07-25T04:39:43.716Z,22.93
2018-07-25T04:42:11.223Z,22.96
2018-07-25T04:44:38.689Z,22.96
2018-07-25T04:47:06.137Z,22.93
2018-07-25T04:49:33.588Z,22.96
2018-07-25T04:52:01.033Z,23.01
2018-07-25T04:54:28.506Z,23.05
2018-07-25T04:56:55.961Z,23.17
2018-07-25T04:59:23.380Z,23.28
2018-07-25T05:01:50.839Z,23.37
2018-07-25T05:04:18.292Z,23.46
2018-07-25T05:06:45.730Z,23.56
2018-07-25T05:09:13.216Z,23.71
2018-07-25T05:11:40.659Z,23.88
2018-07-25T05:14:08.073Z,24.01
2018-07-25T05:16:35.565Z,24.07
2018-07-25T05:19:03.104Z,24.17
2018-07-25T05:21:30.530Z,24.36
2018-07-25T05:23:57.963Z,24.54
2018-07-25T05:26:25.440Z,24.63
2018-07-25T05:28:52.894Z,24.72
2018-07-25T05:31:20.371Z,24.79
2018-07-25T05:33:47.857Z,24.88
2018-07-25T05:36:15.770Z,24.92
2018-07-25T05:38:43.252Z,24.96
2018-07-25T05:41:10.693Z,24.99
2018-07-25T05:43:38.177Z,25.04
2018-07-25T05:46:05.642Z,25.19
2018-07-25T05:48:33.089Z,25.25
2018-07-25T05:51:00.941Z,25.33
2018-07-25T05:53:28.420Z,25.42
2018-07-25T05:55:55.844Z,25.53
2018-07-25T05:58:23.335Z,25.53
2018-07-25T06:00:50.880Z,25.44
2018-07-25T06:03:18.445Z,25.55
2018-07-25T06:05:45.857Z,25.64
2018-07-25T06:08:13.263Z,25.75
2018-07-25T06:10:40.732Z,25.85
2018-07-25T06:13:08.156Z,25.85
2018-07-25T06:15:35.550Z,25.86
2018-07-25T06:18:03.020Z,25.96
2018-07-25T06:20:30.449Z,26.01
2018-07-25T06:22:57.884Z,26.09
2018-07-25T06:25:25.361Z,26.00
2018-07-25T06:27:52.774Z,25.76
2018-07-25T06:30:20.336Z,25.63
2018-07-25T06:32:47.963Z,25.61
2018-07-25T06:35:15.429Z,25.68
2018-07-25T06:37:42.837Z,25.83
2018-07-25T06:40:10.302Z,26.02
2018-07-25T06:42:37.842Z,26.44
2018-07-25T06:45:05.400Z,26.55
2018-07-25T06:47:32.858Z,26.52
2018-07-25T06:50:00.521Z,26.71
2018-07-25T06:52:27.945Z,26.86
2018-07-25T06:54:55.684Z,27.09
2018-07-25T06:57:23.202Z,27.39
2018-07-25T06:59:50.622Z,27.56
2018-07-25T07:02:18.186Z,27.65
2018-07-25T07:04:45.672Z,27.49
2018-07-25T07:07:13.160Z,27.41
2018-07-25T07:09:40.734Z,27.25
2018-07-25T07:12:08.166Z,27.67
2018-07-25T07:14:35.635Z,28.14
2018-07-25T07:17:03.408Z,28.42
2018-07-25T07:19:30.886Z,28.51
2018-07-25T07:21:58.347Z,28.93
2018-07-25T07:24:25.812Z,28.72
2018-07-25T07:26:54.205Z,28.52
2018-07-25T07:29:21.644Z,29.10
2018-07-25T07:31:49.187Z,29.58
2018-07-25T07:34:16.721Z,29.23
2018-07-25T07:36:44.213Z,29.57
2018-07-25T07:39:11.642Z,30.13
2018-07-25T07:41:39.131Z,30.60
2018-07-25T07:44:06.711Z,30.75
2018-07-25T07:46:34.151Z,30.88
2018-07-25T07:49:01.759Z,30.98
2018-07-25T07:51:29.198Z,31.00
2018-07-25T07:53:56.677Z,31.05
2018-07-25T07:56:24.153Z,31.25
2018-07-25T07:58:51.640Z,31.39
2018-07-25T08:01:19.763Z,31.52
2018-07-25T08:03:47.235Z,31.11
2018-07-25T08:06:14.835Z,30.91
2018-07-25T08:08:42.242Z,30.37
2018-07-25T08:11:09.645Z,30.15
2018-07-25T08:13:37.094Z,29.97
2018-07-25T08:16:04.569Z,30.23
2018-07-25T08:18:32.027Z,30.03
2018-07-25T08:20:59.532Z,29.73
2018-07-25T08:23:27.065Z,30.10
2018-07-25T08:25:54.589Z,30.81
2018-07-25T08:28:22.078Z,30.81
2018-07-25T08:30:49.523Z,30.82
2018-07-25T08:33:16.996Z,31.47
2018-07-25T08:35:44.476Z,31.94
2018-07-25T08:38:12.014Z,32.25
2018-07-25T08:40:39.126Z,32.52
2018-07-25T08:43:06.149Z,32.53
2018-07-25T08:45:33.333Z,32.58
2018-07-25T08:48:00.471Z,32.53
2018-07-25T08:50:27.496Z,32.24
2018-07-25T08:52:54.652Z,31.89
2018-07-25T08:55:21.777Z,32.05
2018-07-25T08:57:48.884Z,31.72
2018-07-25T09:00:15.930Z,31.82
2018-07-25T09:02:42.988Z,32.00
2018-07-25T09:05:10.134Z,32.07
2018-07-25T09:07:37.281Z,32.24
2018-07-25T09:10:04.330Z,32.26
2018-07-25T09:12:31.384Z,31.97
2018-07-25T09:14:58.473Z,31.83
2018-07-25T09:17:25.450Z,31.81
2018-07-25T09:19:52.463Z,31.82
2018-07-25T09:22:19.972Z,31.65
2018-07-25T09:24:47.424Z,31.46
2018-07-25T09:27:14.917Z,31.33
2018-07-25T09:29:42.470Z,31.21
2018-07-25T09:32:10.164Z,31.39
2018-07-25T09:34:37.637Z,31.47
2018-07-25T09:37:05.092Z,31.51
2018-07-25T09:39:32.686Z,31.71
2018-07-25T09:42:00.188Z,31.84
2018-07-25T09:44:27.631Z,31.89
2018-07-25T09:46:55.078Z,31.87
2018-07-25T09:49:22.559Z,32.05
2018-07-25T09:51:50.031Z,32.19
2018-07-25T09:54:17.494Z,31.99
2018-07-25T09:56:45.055Z,32.03
2018-07-25T09:59:12.504Z,31.81
2018-07-25T10:01:39.995Z,31.83
2018-07-25T10:04:07.466Z,31.81
2018-07-25T10:06:35.094Z,31.95
2018-07-25T10:09:02.563Z,32.11
2018-07-25T10:11:29.986Z,32.07
2018-07-25T10:13:57.437Z,31.95
2018-07-25T10:16:24.470Z,32.09
2018-07-25T10:18:51.662Z,32.47
2018-07-25T10:21:18.841Z,32.44
2018-07-25T10:23:45.950Z,32.36
2018-07-25T10:26:13.502Z,32.38
2018-07-25T10:28:40.942Z,32.31
2018-07-25T10:31:08.516Z,32.36
2018-07-25T10:33:35.999Z,32.58
2018-07-25T10:36:03.590Z,32.80
2018-07-25T10:38:30.609Z,33.16
2018-07-25T10:40:57.732Z,32.80
2018-07-25T10:43:25.870Z,32.56
2018-07-25T10:45:53.023Z,32.95
2018-07-25T10:48:20.490Z,33.25
2018-07-25T10:50:47.999Z,33.26
2018-07-25T10:53:15.529Z,32.96
2018-07-25T10:55:43.215Z,32.73
2018-07-25T10:58:10.639Z,32.88
2018-07-25T11:00:38.145Z,32.95
2018-07-25T11:03:05.659Z,33.29
2018-07-25T11:05:33.107Z,33.39
2018-07-25T11:08:00.589Z,33.27
2018-07-25T11:10:28.117Z,33.40
2018-07-25T11:12:55.587Z,33.18
2018-07-25T11:15:23.126Z,32.99
2018-07-25T11:17:50.707Z,33.51
2018-07-25T11:20:18.290Z,33.62
2018-07-25T11:22:45.780Z,34.14
2018-07-25T11:25:13.265Z,34.26
2018-07-25T11:27:40.728Z,34.13
2018-07-25T11:30:08.212Z,34.00
2018-07-25T11:32:35.830Z,34.11
2018-07-25T11:35:03.288Z,33.95
2018-07-25T11:37:30.856Z,33.88
2018-07-25T11:39:58.352Z,33.90
2018-07-25T11:42:25.871Z,33.98
2018-07-25T11:44:53.344Z,34.25
2018-07-25T11:47:21.144Z,34.61
2018-07-25T11:49:48.597Z,34.62
2018-07-25T11:52:16.384Z,34.43
2018-07-25T11:54:44.000Z,34.35
2018-07-25T11:57:11.656Z,34.44
2018-07-25T11:59:39.420Z,34.33
2018-07-25T12:02:06.874Z,34.38
2018-07-25T12:04:34.404Z,34.31
2018-07-25T12:09:29.453Z,33.96
2018-07-25T12:11:56.930Z,34.09
2018-07-25T12:14:24.370Z,34.56
2018-07-25T12:16:52.308Z,34.74
2018-07-25T12:19:19.817Z,34.53
2018-07-25T12:21:47.330Z,34.61
2018-07-25T12:24:14.953Z,34.88
2018-07-25T12:26:42.420Z,35.06
2018-07-25T12:29:09.884Z,34.71
2018-07-25T12:31:37.390Z,34.67
2018-07-25T12:34:04.918Z,34.56
2018-07-25T12:36:32.382Z,34.51
2018-07-25T12:38:59.862Z,34.79
2018-07-25T12:41:27.423Z,34.80
2018-07-25T12:43:54.968Z,34.59
2018-07-25T12:46:22.386Z,34.51
2018-07-25T12:48:49.858Z,34.60
2018-07-25T12:51:17.374Z,34.81
2018-07-25T12:53:44.956Z,34.91
2018-07-25T12:56:12.355Z,34.72
2018-07-25T12:58:39.859Z,34.63
2018-07-25T13:01:07.368Z,34.83
2018-07-25T13:03:34.868Z,34.83
2018-07-25T13:06:02.380Z,34.68
2018-07-25T13:08:29.888Z,34.73
2018-07-25T13:10:57.368Z,34.81
2018-07-25T13:13:24.846Z,34.92
2018-07-25T13:15:52.307Z,34.99
2018-07-25T13:18:19.753Z,35.01
2018-07-25T13:20:47.227Z,35.27
2018-07-25T13:23:14.697Z,35.21
2018-07-25T13:25:42.176Z,34.85
2018-07-25T13:28:09.825Z,34.84
2018-07-25T13:30:37.440Z,34.74
2018-07-25T13:33:04.900Z,34.82
2018-07-25T13:35:32.440Z,34.92
2018-07-25T13:37:59.974Z,34.85
2018-07-25T13:40:27.489Z,34.89
2018-07-25T13:42:55.075Z,35.00
2018-07-25T13:45:22.502Z,34.79
2018-07-25T13:47:49.912Z,34.94
2018-07-25T13:50:17.544Z,35.20
2018-07-25T13:52:44.921Z,35.37
2018-07-25T13:55:12.441Z,35.40
2018-07-25T13:57:39.940Z,35.03
2018-07-25T14:00:07.444Z,34.95
2018-07-25T14:02:34.895Z,35.37
2018-07-25T14:05:02.514Z,35.24
2018-07-25T14:07:29.997Z,35.40
2018-07-25T14:09:56.939Z,35.40
2018-07-25T14:12:23.967Z,35.36
2018-07-25T14:14:51.441Z,34.95
2018-07-25T14:17:18.915Z,34.77
2018-07-25T14:19:46.477Z,34.76
2018-07-25T14:22:13.986Z,34.90
2018-07-25T14:24:41.546Z,34.82
2018-07-25T14:27:08.886Z,34.71
2018-07-25T14:29:36.347Z,34.92
2018-07-25T14:32:03.325Z,34.67
2018-07-25T14:34:30.874Z,34.59
2018-07-25T14:36:58.290Z,34.80
2018-07-25T14:39:25.833Z,34.86
2018-07-25T14:41:52.900Z,34.93
2018-07-25T14:44:20.363Z,35.29
2018-07-25T14:46:47.896Z,35.42
2018-07-25T14:49:15.317Z,35.33
2018-07-25T14:51:42.338Z,35.05
2018-07-25T14:54:09.326Z,34.97
2018-07-25T14:56:36.362Z,34.80
2018-07-25T14:59:03.845Z,34.83
2018-07-25T15:01:31.303Z,35.03
2018-07-25T15:03:58.924Z,34.99
2018-07-25T15:06:26.390Z,35.08
2018-07-25T15:08:53.887Z,35.04
2018-07-25T15:11:21.361Z,35.19
2018-07-25T15:13:48.893Z,35.34
2018-07-25T15:16:16.359Z,35.29
2018-07-25T15:18:43.843Z,35.28
2018-07-25T15:21:11.304Z,35.05
2018-07-25T15:23:44.536Z,34.99
2018-07-25T15:26:11.871Z,35.05
2018-07-25T15:28:39.514Z,35.00
2018-07-25T15:31:06.991Z,34.93
2018-07-25T15:33:34.157Z,34.98
2018-07-25T15:36:01.650Z,34.94
2018-07-25T15:38:29.119Z,34.84
2018-07-25T15:40:56.662Z,34.87
2018-07-25T15:43:24.157Z,34.93
2018-07-25T15:45:51.604Z,34.93
2018-07-25T15:48:19.093Z,35.00
2018-07-25T15:50:46.534Z,34.96
2018-07-25T15:53:14.410Z,34.91
2018-07-25T15:55:41.829Z,34.82
2018-07-25T15:58:08.832Z,34.77
2018-07-25T16:00:36.320Z,34.55
2018-07-25T16:03:03.812Z,34.38
2018-07-25T16:05:31.440Z,34.23
2018-07-25T16:07:58.888Z,34.31
2018-07-25T16:10:26.361Z,34.37
2018-07-25T16:12:53.357Z,34.36
2018-07-25T16:15:20.811Z,34.46
2018-07-25T16:17:48.293Z,34.49
2018-07-25T16:20:15.766Z,34.47
2018-07-25T16:22:43.357Z,34.28
2018-07-25T16:25:10.855Z,34.27
2018-07-25T16:27:38.359Z,34.02
2018-07-25T16:30:05.397Z,34.04
2018-07-25T16:32:32.918Z,34.22
2018-07-25T16:35:00.502Z,34.47
2018-07-25T16:37:27.628Z,34.65
2018-07-25T16:39:55.298Z,34.80
2018-07-25T16:42:22.813Z,34.62
2018-07-25T16:44:50.329Z,34.43
2018-07-25T16:47:17.866Z,34.21
2018-07-25T16:49:45.363Z,33.90
2018-07-25T16:52:12.914Z,33.65
2018-07-25T16:54:40.413Z,33.54
2018-07-25T16:57:07.984Z,33.43
2018-07-25T16:59:35.123Z,33.48
2018-07-25T17:02:02.138Z,33.47
2018-07-25T17:04:29.638Z,33.36
2018-07-25T17:06:57.255Z,33.06
2018-07-25T17:09:24.739Z,32.85
2018-07-25T17:11:52.199Z,32.51
2018-07-25T17:14:19.711Z,32.23
2018-07-25T17:16:47.231Z,32.11
2018-07-25T17:19:14.708Z,31.95
2018-07-25T17:21:42.197Z,31.90
2018-07-25T17:24:09.867Z,31.86
2018-07-25T17:26:37.390Z,31.88
2018-07-25T17:29:04.891Z,31.85
2018-07-25T17:31:32.733Z,31.72
2018-07-25T17:34:00.202Z,31.66
2018-07-25T17:36:27.674Z,31.50
2018-07-25T17:38:55.176Z,31.30
2018-07-25T17:41:23.000Z,31.14
2018-07-25T17:43:50.402Z,31.04
2018-07-25T17:46:18.123Z,30.97
2018-07-25T17:48:45.915Z,30.94
2018-07-25T17:51:13.367Z,30.88
2018-07-25T17:53:40.844Z,30.86
2018-07-25T17:56:07.944Z,30.82
2018-07-25T17:58:35.998Z,30.82
2018-07-25T18:01:03.494Z,30.79
2018-07-25T18:03:31.214Z,30.72
2018-07-25T18:05:58.587Z,30.67
2018-07-25T18:08:26.716Z,30.62
2018-07-25T18:10:54.152Z,30.60
2018-07-25T18:13:21.752Z,30.59
2018-07-25T18:15:49.263Z,30.66
2018-07-25T18:18:16.722Z,30.73
2018-07-25T18:20:44.188Z,30.72
2018-07-25T18:23:11.706Z,30.65
2018-07-25T18:25:39.207Z,30.69
2018-07-25T18:28:06.788Z,30.73
2018-07-25T18:30:34.409Z,30.66
2018-07-25T18:33:01.866Z,30.63
2018-07-25T18:35:29.469Z,30.60
2018-07-25T18:37:56.992Z,30.57
2018-07-25T18:40:24.442Z,30.62
2018-07-25T18:42:51.923Z,30.69
2018-07-25T18:45:19.386Z,30.61
2018-07-25T18:47:46.907Z,30.54
2018-07-25T18:50:14.409Z,30.46
2018-07-25T18:52:42.095Z,30.32
2018-07-25T18:55:09.638Z,30.20
2018-07-25T18:57:37.336Z,30.14
2018-07-25T19:00:04.792Z,29.90
2018-07-25T19:02:32.390Z,29.78
2018-07-25T19:05:00.402Z,29.74
2018-07-25T19:07:28.043Z,29.76
2018-07-25T19:09:55.533Z,29.71
2018-07-25T19:12:23.232Z,29.58
2018-07-25T19:14:50.824Z,29.50
2018-07-25T19:17:18.285Z,29.47
2018-07-25T19:19:45.752Z,29.53
2018-07-25T19:22:13.347Z,29.49
2018-07-25T19:24:40.791Z,29.47
2018-07-25T19:27:08.355Z,29.45
2018-07-25T19:29:35.823Z,29.43
2018-07-25T19:32:03.250Z,29.41
2018-07-25T19:34:30.760Z,29.36
2018-07-25T19:36:58.237Z,29.38
2018-07-25T19:39:25.749Z,29.38
2018-07-25T19:41:53.225Z,29.36
2018-07-25T19:44:20.726Z,29.37
2018-07-25T19:46:48.178Z,29.35
2018-07-25T19:49:15.595Z,29.34
2018-07-25T19:51:43.065Z,29.26
2018-07-25T19:54:10.514Z,29.21
2018-07-25T19:56:37.972Z,29.13
2018-07-25T19:59:05.584Z,28.99
2018-07-25T20:01:33.028Z,28.91
2018-07-25T20:04:00.938Z,28.89
2018-07-25T20:06:28.398Z,28.78
2018-07-25T20:08:55.859Z,28.84
2018-07-25T20:11:23.667Z,28.81
2018-07-25T20:13:52.293Z,28.73
2018-07-25T20:16:19.841Z,28.69
2018-07-25T20:18:47.288Z,28.67
2018-07-25T20:21:14.798Z,28.64
2018-07-25T20:23:42.428Z,28.61
2018-07-25T20:26:09.965Z,28.45
2018-07-25T20:28:37.427Z,28.35
2018-07-25T20:31:04.912Z,28.38
2018-07-25T20:33:32.405Z,28.32
2018-07-25T20:36:05.075Z,28.20
2018-07-25T20:38:32.511Z,28.03
2018-07-25T20:41:00.015Z,27.96
2018-07-25T20:43:27.564Z,27.90
2018-07-25T20:45:55.140Z,27.93
2018-07-25T20:48:22.759Z,27.82
2018-07-25T20:50:50.261Z,27.79
2018-07-25T20:53:17.848Z,27.80
2018-07-25T20:55:45.357Z,27.77
2018-07-25T20:58:12.816Z,27.74
2018-07-25T21:00:40.296Z,27.60
2018-07-25T21:03:07.764Z,27.58
2018-07-25T21:05:35.346Z,27.53
2018-07-25T21:08:03.034Z,27.46
2018-07-25T21:10:30.511Z,27.46
2018-07-25T21:12:58.028Z,27.36
2018-07-25T21:15:25.548Z,27.28
2018-07-25T21:17:53.067Z,27.22
2018-07-25T21:20:20.528Z,27.16
2018-07-25T21:22:47.963Z,27.10
2018-07-25T21:25:15.510Z,27.07
2018-07-25T21:27:43.488Z,27.06
2018-07-25T21:30:10.957Z,27.07
2018-07-25T21:32:38.454Z,27.04
2018-07-25T21:35:05.894Z,26.97
2018-07-25T21:37:33.340Z,26.93
2018-07-25T21:40:00.945Z,26.92
2018-07-25T21:42:28.393Z,26.89
2018-07-25T21:44:55.869Z,26.81
2018-07-25T21:47:23.407Z,26.82
2018-07-25T21:49:51.147Z,26.77
2018-07-25T21:52:18.571Z,26.63
2018-07-25T21:54:46.024Z,26.52
2018-07-25T21:57:13.540Z,26.41
2018-07-25T21:59:41.051Z,26.35
2018-07-25T22:02:08.492Z,26.35
2018-07-25T22:04:36.000Z,26.35
2018-07-25T22:07:03.525Z,26.38
2018-07-25T22:09:31.065Z,26.42
2018-07-25T22:11:58.503Z,26.41
2018-07-25T22:14:25.951Z,26.41
2018-07-25T22:16:53.546Z,26.38
2018-07-25T22:19:21.081Z,26.35
2018-07-25T22:21:48.588Z,26.33
2018-07-25T22:24:16.042Z,26.33
2018-07-25T22:26:43.476Z,26.35
2018-07-25T22:29:10.993Z,26.32
2018-07-25T22:31:38.435Z,26.38
2018-07-25T22:34:06.004Z,26.43
2018-07-25T22:36:33.496Z,26.43
2018-07-25T22:39:01.776Z,26.42
2018-07-25T22:41:29.322Z,26.38
2018-07-25T22:43:56.778Z,26.30
2018-07-25T22:46:24.360Z,26.19
2018-07-25T22:48:51.797Z,26.11
2018-07-25T22:51:19.372Z,26.11
2018-07-25T22:53:46.874Z,26.15
2018-07-25T22:56:14.379Z,26.18
2018-07-25T22:58:41.835Z,26.16
2018-07-25T23:01:09.318Z,26.12
2018-07-25T23:03:36.720Z,26.03
2018-07-25T23:06:04.222Z,25.94
2018-07-25T23:08:31.680Z,25.94
2018-07-25T23:10:59.118Z,25.94
2018-07-25T23:13:26.615Z,25.90
2018-07-25T23:15:54.066Z,25.78
2018-07-25T23:18:21.546Z,25.66
2018-07-25T23:20:49.020Z,25.59
2018-07-25T23:23:16.453Z,25.62
2018-07-25T23:25:43.906Z,25.67
2018-07-25T23:28:11.416Z,25.57
2018-07-25T23:30:39.086Z,25.53
2018-07-25T23:33:06.543Z,25.52
2018-07-25T23:35:34.064Z,25.52
2018-07-25T23:38:01.546Z,25.52
2018-07-25T23:40:28.988Z,25.51
2018-07-25T23:42:56.432Z,25.47
2018-07-25T23:45:23.901Z,25.41
2018-07-25T23:47:51.366Z,25.43
2018-07-25T23:50:18.827Z,25.47
2018-07-25T23:52:46.226Z,25.53
2018-07-25T23:55:13.646Z,25.49
2018-07-25T23:57:41.064Z,25.38
